sensor_id;sensor_type;location;lat;lon;timestamp;pressure;altitude;pressure_sealevel;temperature;humidity
40708;BME280;26392;42.696;23.350;2022-12-20T00:01:50;97170.09;;;-0.29;100.00
40708;BME280;26392;42.696;23.350;2022-12-20T00:04:15;97170.53;;;-0.24;100.00
40708;BME280;26392;42.696;23.350;2022-12-20T00:06:40;97169.53;;;-0.13;100.00
40708;BME280;26392;42.696;23.350;2022-12-20T00:09:07;97163.44;;;-0.06;100.00
40708;BME280;26392;42.696;23.350;2022-12-20T00:11:34;97176.97;;;0.03;100.00
40708;BME280;26392;42.696;23.350;2022-12-20T00:13:59;97181.06;;;0.07;100.00
40708;BME280;26392;42.696;23.350;2022-12-20T00:16:26;97171.34;;;0.06;100.00
40708;BME280;26392;42.696;23.350;2022-12-20T00:18:54;97178.22;;;0.18;100.00
40708;BME280;26392;42.696;23.350;2022-12-20T00:21:21;97187.66;;;0.22;100.00
40708;BME280;26392;42.696;23.350;2022-12-20T00:23:46;97187.25;;;0.17;100.00
40708;BME280;26392;42.696;23.350;2022-12-20T00:26:17;97187.09;;;0.18;100.00
40708;BME280;26392;42.696;23.350;2022-12-20T00:28:43;97178.06;;;0.19;100.00
40708;BME280;26392;42.696;23.350;2022-12-20T00:31:10;97187.94;;;0.19;100.00
40708;BME280;26392;42.696;23.350;2022-12-20T00:33:37;97183.03;;;0.14;100.00
40708;BME280;26392;42.696;23.350;2022-12-20T00:36:04;97180.59;;;0.21;100.00
40708;BME280;26392;42.696;23.350;2022-12-20T00:38:30;97177.09;;;0.20;100.00
40708;BME280;26392;42.696;23.350;2022-12-20T00:41:10;97176.38;;;0.18;100.00
40708;BME280;26392;42.696;23.350;2022-12-20T00:43:37;97165.81;;;0.17;100.00
40708;BME280;26392;42.696;23.350;2022-12-20T00:46:03;97174.69;;;0.17;100.00
40708;BME280;26392;42.696;23.350;2022-12-20T00:48:29;97162.00;;;0.10;100.00
40708;BME280;26392;42.696;23.350;2022-12-20T00:50:59;97172.88;;;0.08;100.00
40708;BME280;26392;42.696;23.350;2022-12-20T00:53:25;97181.63;;;0.10;100.00
40708;BME280;26392;42.696;23.350;2022-12-20T00:55:50;97173.88;;;0.07;100.00
40708;BME280;26392;42.696;23.350;2022-12-20T00:58:15;97166.56;;;-0.10;100.00
40708;BME280;26392;42.696;23.350;2022-12-20T01:00:41;97179.50;;;0.04;100.00
40708;BME280;26392;42.696;23.350;2022-12-20T01:03:07;97177.53;;;-0.04;100.00
40708;BME280;26392;42.696;23.350;2022-12-20T01:05:32;97172.06;;;-0.02;100.00
40708;BME280;26392;42.696;23.350;2022-12-20T01:07:58;97170.34;;;0.07;100.00
40708;BME280;26392;42.696;23.350;2022-12-20T01:10:23;97178.50;;;0.15;100.00
40708;BME280;26392;42.696;23.350;2022-12-20T01:12:49;97173.69;;;0.18;100.00
40708;BME280;26392;42.696;23.350;2022-12-20T01:15:15;97172.28;;;0.24;100.00
40708;BME280;26392;42.696;23.350;2022-12-20T01:17:40;97166.06;;;0.24;100.00
40708;BME280;26392;42.696;23.350;2022-12-20T01:20:06;97160.16;;;0.20;100.00
40708;BME280;26392;42.696;23.350;2022-12-20T01:22:32;97170.00;;;0.19;100.00
40708;BME280;26392;42.696;23.350;2022-12-20T01:24:57;97159.59;;;0.16;100.00
40708;BME280;26392;42.696;23.350;2022-12-20T01:27:22;97158.75;;;0.16;100.00
40708;BME280;26392;42.696;23.350;2022-12-20T01:29:48;97150.16;;;0.12;100.00
40708;BME280;26392;42.696;23.350;2022-12-20T01:32:13;97149.31;;;0.12;100.00
40708;BME280;26392;42.696;23.350;2022-12-20T01:34:39;97146.47;;;0.13;100.00
40708;BME280;26392;42.696;23.350;2022-12-20T01:37:04;97141.28;;;0.02;100.00
40708;BME280;26392;42.696;23.350;2022-12-20T01:39:30;97149.47;;;0.01;100.00
40708;BME280;26392;42.696;23.350;2022-12-20T01:41:55;97142.41;;;-0.01;100.00
40708;BME280;26392;42.696;23.350;2022-12-20T01:46:47;97133.41;;;-0.09;100.00
40708;BME280;26392;42.696;23.350;2022-12-20T01:49:17;97130.72;;;-0.09;100.00
40708;BME280;26392;42.696;23.350;2022-12-20T01:51:50;97134.66;;;-0.04;100.00
40708;BME280;26392;42.696;23.350;2022-12-20T01:54:29;97126.78;;;-0.05;100.00
40708;BME280;26392;42.696;23.350;2022-12-20T01:57:02;97118.34;;;-0.10;100.00
40708;BME280;26392;42.696;23.350;2022-12-20T01:59:30;97118.16;;;-0.09;100.00
40708;BME280;26392;42.696;23.350;2022-12-20T02:02:02;97114.81;;;-0.20;100.00
40708;BME280;26392;42.696;23.350;2022-12-20T02:04:28;97123.28;;;-0.15;100.00
40708;BME280;26392;42.696;23.350;2022-12-20T02:06:54;97121.59;;;-0.16;100.00
40708;BME280;26392;42.696;23.350;2022-12-20T02:09:20;97115.81;;;-0.21;100.00
40708;BME280;26392;42.696;23.350;2022-12-20T02:12:16;97106.34;;;-0.26;100.00
40708;BME280;26392;42.696;23.350;2022-12-20T02:20:33;97121.59;;;-0.26;100.00
40708;BME280;26392;42.696;23.350;2022-12-20T02:29:20;97119.63;;;-0.24;100.00
40708;BME280;26392;42.696;23.350;2022-12-20T02:31:59;97115.66;;;-0.20;100.00
40708;BME280;26392;42.696;23.350;2022-12-20T02:34:28;97117.06;;;-0.26;100.00
40708;BME280;26392;42.696;23.350;2022-12-20T02:36:56;97120.19;;;-0.20;100.00
40708;BME280;26392;42.696;23.350;2022-12-20T02:39:22;97114.09;;;-0.23;100.00
40708;BME280;26392;42.696;23.350;2022-12-20T02:42:14;97109.91;;;-0.25;100.00
40708;BME280;26392;42.696;23.350;2022-12-20T02:45:01;97113.56;;;-0.26;100.00
40708;BME280;26392;42.696;23.350;2022-12-20T02:50:28;97102.13;;;-0.28;100.00
40708;BME280;26392;42.696;23.350;2022-12-20T02:52:55;97103.72;;;-0.35;100.00
40708;BME280;26392;42.696;23.350;2022-12-20T02:55:30;97100.63;;;-0.31;100.00
40708;BME280;26392;42.696;23.350;2022-12-20T02:58:05;97097.53;;;-0.36;100.00
40708;BME280;26392;42.696;23.350;2022-12-20T03:00:37;97097.22;;;-0.33;100.00
40708;BME280;26392;42.696;23.350;2022-12-20T03:03:04;97092.59;;;-0.31;100.00
40708;BME280;26392;42.696;23.350;2022-12-20T03:05:58;97095.97;;;-0.38;100.00
40708;BME280;26392;42.696;23.350;2022-12-20T03:08:24;97093.44;;;-0.50;100.00
40708;BME280;26392;42.696;23.350;2022-12-20T03:10:50;97088.38;;;-0.53;100.00
40708;BME280;26392;42.696;23.350;2022-12-20T03:13:17;97090.91;;;-0.61;100.00
40708;BME280;26392;42.696;23.350;2022-12-20T03:15:43;97088.53;;;-0.64;100.00
40708;BME280;26392;42.696;23.350;2022-12-20T03:18:08;97088.22;;;-0.71;100.00
40708;BME280;26392;42.696;23.350;2022-12-20T03:20:33;97082.91;;;-0.80;100.00
40708;BME280;26392;42.696;23.350;2022-12-20T03:22:59;97078.53;;;-0.91;100.00
40708;BME280;26392;42.696;23.350;2022-12-20T03:25:25;97083.16;;;-0.93;100.00
40708;BME280;26392;42.696;23.350;2022-12-20T03:27:50;97085.84;;;-1.03;100.00
40708;BME280;26392;42.696;23.350;2022-12-20T03:30:16;97080.19;;;-1.09;100.00
40708;BME280;26392;42.696;23.350;2022-12-20T03:32:41;97075.41;;;-1.16;100.00
40708;BME280;26392;42.696;23.350;2022-12-20T03:35:07;97086.81;;;-1.14;100.00
40708;BME280;26392;42.696;23.350;2022-12-20T03:37:32;97080.63;;;-1.14;100.00
40708;BME280;26392;42.696;23.350;2022-12-20T03:39:58;97082.72;;;-1.18;100.00
40708;BME280;26392;42.696;23.350;2022-12-20T03:42:23;97081.88;;;-1.18;100.00
40708;BME280;26392;42.696;23.350;2022-12-20T03:44:49;97081.88;;;-1.18;100.00
40708;BME280;26392;42.696;23.350;2022-12-20T03:47:14;97079.63;;;-1.23;100.00
40708;BME280;26392;42.696;23.350;2022-12-20T03:49:40;97078.75;;;-1.23;100.00
40708;BME280;26392;42.696;23.350;2022-12-20T03:52:05;97079.19;;;-1.28;100.00
40708;BME280;26392;42.696;23.350;2022-12-20T03:54:30;97069.75;;;-1.32;100.00
40708;BME280;26392;42.696;23.350;2022-12-20T03:56:56;97077.09;;;-1.34;100.00
40708;BME280;26392;42.696;23.350;2022-12-20T03:59:21;97061.31;;;-1.37;100.00
40708;BME280;26392;42.696;23.350;2022-12-20T04:01:46;97070.16;;;-1.46;100.00
40708;BME280;26392;42.696;23.350;2022-12-20T04:04:13;97077.31;;;-1.47;100.00
40708;BME280;26392;42.696;23.350;2022-12-20T04:06:40;97085.75;;;-1.51;100.00
40708;BME280;26392;42.696;23.350;2022-12-20T04:09:05;97074.50;;;-1.55;100.00
40708;BME280;26392;42.696;23.350;2022-12-20T04:11:31;97078.00;;;-1.54;100.00
40708;BME280;26392;42.696;23.350;2022-12-20T04:13:56;97081.94;;;-1.59;100.00
40708;BME280;26392;42.696;23.350;2022-12-20T04:16:27;97078.56;;;-1.61;100.00
40708;BME280;26392;42.696;23.350;2022-12-20T04:18:53;97073.38;;;-1.62;100.00
40708;BME280;26392;42.696;23.350;2022-12-20T04:21:23;97067.16;;;-1.63;100.00
40708;BME280;26392;42.696;23.350;2022-12-20T04:23:49;97073.94;;;-1.59;100.00
40708;BME280;26392;42.696;23.350;2022-12-20T04:26:15;97069.69;;;-1.61;100.00
40708;BME280;26392;42.696;23.350;2022-12-20T04:28:41;97070.53;;;-1.61;100.00
40708;BME280;26392;42.696;23.350;2022-12-20T04:31:06;97065.34;;;-1.62;100.00
40708;BME280;26392;42.696;23.350;2022-12-20T04:33:32;97064.06;;;-1.58;100.00
40708;BME280;26392;42.696;23.350;2022-12-20T04:35:57;97060.69;;;-1.60;100.00
40708;BME280;26392;42.696;23.350;2022-12-20T04:38:23;97056.06;;;-1.58;100.00
40708;BME280;26392;42.696;23.350;2022-12-20T04:40:49;97064.91;;;-1.58;100.00
40708;BME280;26392;42.696;23.350;2022-12-20T04:43:15;97058.88;;;-1.60;100.00
40708;BME280;26392;42.696;23.350;2022-12-20T04:45:40;97066.31;;;-1.63;100.00
40708;BME280;26392;42.696;23.350;2022-12-20T04:48:06;97061.56;;;-1.60;100.00
40708;BME280;26392;42.696;23.350;2022-12-20T04:50:31;97056.06;;;-1.58;100.00
40708;BME280;26392;42.696;23.350;2022-12-20T04:52:57;97059.56;;;-1.58;100.00
40708;BME280;26392;42.696;23.350;2022-12-20T04:55:41;97062.50;;;-1.61;100.00
40708;BME280;26392;42.696;23.350;2022-12-20T04:58:07;97063.78;;;-1.65;100.00
40708;BME280;26392;42.696;23.350;2022-12-20T05:00:33;97057.16;;;-1.61;100.00
40708;BME280;26392;42.696;23.350;2022-12-20T05:02:59;97064.22;;;-1.60;100.00
40708;BME280;26392;42.696;23.350;2022-12-20T05:05:25;97061.81;;;-1.63;100.00
40708;BME280;26392;42.696;23.350;2022-12-20T05:07:51;97052.25;;;-1.65;100.00
40708;BME280;26392;42.696;23.350;2022-12-20T05:10:17;97060.41;;;-1.67;100.00
40708;BME280;26392;42.696;23.350;2022-12-20T05:12:43;97067.00;;;-1.71;100.00
40708;BME280;26392;42.696;23.350;2022-12-20T05:15:09;97057.56;;;-1.75;100.00
40708;BME280;26392;42.696;23.350;2022-12-20T05:17:35;97064.72;;;-1.75;100.00
40708;BME280;26392;42.696;23.350;2022-12-20T05:20:01;97057.56;;;-1.75;100.00
40708;BME280;26392;42.696;23.350;2022-12-20T05:22:26;97061.22;;;-1.76;100.00
40708;BME280;26392;42.696;23.350;2022-12-20T05:25:11;97054.16;;;-1.77;100.00
40708;BME280;26392;42.696;23.350;2022-12-20T05:27:55;97059.06;;;-1.82;100.00
40708;BME280;26392;42.696;23.350;2022-12-20T05:30:20;97057.38;;;-1.83;100.00
40708;BME280;26392;42.696;23.350;2022-12-20T05:32:46;97063.00;;;-1.86;100.00
40708;BME280;26392;42.696;23.350;2022-12-20T05:35:12;97060.59;;;-1.89;100.00
40708;BME280;26392;42.696;23.350;2022-12-20T05:37:37;97066.41;;;-1.84;100.00
40708;BME280;26392;42.696;23.350;2022-12-20T05:40:03;97059.94;;;-1.82;100.00
40708;BME280;26392;42.696;23.350;2022-12-20T05:42:29;97063.56;;;-1.83;100.00
40708;BME280;26392;42.696;23.350;2022-12-20T05:44:55;97069.75;;;-1.82;100.00
40708;BME280;26392;42.696;23.350;2022-12-20T05:47:20;97073.59;;;-1.75;100.00
40708;BME280;26392;42.696;23.350;2022-12-20T05:49:45;97068.63;;;-1.80;100.00
40708;BME280;26392;42.696;23.350;2022-12-20T05:52:11;97075.69;;;-1.78;100.00
40708;BME280;26392;42.696;23.350;2022-12-20T05:54:36;97077.25;;;-1.76;100.00
40708;BME280;26392;42.696;23.350;2022-12-20T05:57:02;97069.91;;;-1.74;100.00
40708;BME280;26392;42.696;23.350;2022-12-20T05:59:27;97069.50;;;-1.79;100.00
40708;BME280;26392;42.696;23.350;2022-12-20T06:01:53;97077.53;;;-1.79;100.00
40708;BME280;26392;42.696;23.350;2022-12-20T06:04:19;97070.19;;;-1.77;100.00
40708;BME280;26392;42.696;23.350;2022-12-20T06:06:45;97072.59;;;-1.74;100.00
40708;BME280;26392;42.696;23.350;2022-12-20T06:09:10;97075.88;;;-1.70;100.00
40708;BME280;26392;42.696;23.350;2022-12-20T06:11:36;97078.09;;;-1.66;100.00
40708;BME280;26392;42.696;23.350;2022-12-20T06:14:01;97079.81;;;-1.65;100.00
40708;BME280;26392;42.696;23.350;2022-12-20T06:16:27;97080.38;;;-1.61;100.00
40708;BME280;26392;42.696;23.350;2022-12-20T06:18:52;97067.88;;;-1.61;100.00
40708;BME280;26392;42.696;23.350;2022-12-20T06:21:18;97079.56;;;-1.52;100.00
40708;BME280;26392;42.696;23.350;2022-12-20T06:23:43;97077.59;;;-1.50;100.00
40708;BME280;26392;42.696;23.350;2022-12-20T06:26:09;97077.31;;;-1.47;100.00
40708;BME280;26392;42.696;23.350;2022-12-20T06:28:35;97078.03;;;-1.45;100.00
40708;BME280;26392;42.696;23.350;2022-12-20T06:31:08;97066.19;;;-1.52;100.00
40708;BME280;26392;42.696;23.350;2022-12-20T06:33:33;97077.19;;;-1.45;100.00
40708;BME280;26392;42.696;23.350;2022-12-20T06:35:59;97074.53;;;-1.45;100.00
40708;BME280;26392;42.696;23.350;2022-12-20T06:38:24;97073.69;;;-1.36;100.00
40708;BME280;26392;42.696;23.350;2022-12-20T06:40:50;97066.50;;;-1.36;100.00
40708;BME280;26392;42.696;23.350;2022-12-20T06:43:15;97068.91;;;-1.32;100.00
40708;BME280;26392;42.696;23.350;2022-12-20T06:45:41;97070.19;;;-1.27;100.00
40708;BME280;26392;42.696;23.350;2022-12-20T06:48:06;97060.59;;;-1.29;100.00
40708;BME280;26392;42.696;23.350;2022-12-20T06:50:32;97058.22;;;-1.32;100.00
40708;BME280;26392;42.696;23.350;2022-12-20T06:52:57;97057.94;;;-1.29;100.00
40708;BME280;26392;42.696;23.350;2022-12-20T06:55:22;97058.75;;;-1.29;100.00
40708;BME280;26392;42.696;23.350;2022-12-20T06:57:48;97054.56;;;-1.31;100.00
40708;BME280;26392;42.696;23.350;2022-12-20T07:00:13;97056.53;;;-1.24;100.00
40708;BME280;26392;42.696;23.350;2022-12-20T07:02:39;97048.53;;;-1.14;100.00
40708;BME280;26392;42.696;23.350;2022-12-20T07:05:05;97055.72;;;-1.15;100.00
40708;BME280;26392;42.696;23.350;2022-12-20T07:07:30;97047.56;;;-1.03;100.00
40708;BME280;26392;42.696;23.350;2022-12-20T07:09:56;97048.38;;;-1.03;100.00
40708;BME280;26392;42.696;23.350;2022-12-20T07:12:22;97051.75;;;-0.91;100.00
40708;BME280;26392;42.696;23.350;2022-12-20T07:14:48;97045.28;;;-0.88;100.00
40708;BME280;26392;42.696;23.350;2022-12-20T07:17:13;97039.63;;;-0.76;100.00
40708;BME280;26392;42.696;23.350;2022-12-20T07:19:38;97043.28;;;-0.77;100.00
40708;BME280;26392;42.696;23.350;2022-12-20T07:22:04;97038.78;;;-0.66;100.00
40708;BME280;26392;42.696;23.350;2022-12-20T07:24:30;97039.75;;;-0.68;100.00
40708;BME280;26392;42.696;23.350;2022-12-20T07:26:56;97042.72;;;-0.61;100.00
40708;BME280;26392;42.696;23.350;2022-12-20T07:29:22;97039.34;;;-0.53;100.00
40708;BME280;26392;42.696;23.350;2022-12-20T07:31:48;97045.38;;;-0.41;100.00
40708;BME280;26392;42.696;23.350;2022-12-20T07:34:13;97039.31;;;-0.43;100.00
40708;BME280;26392;42.696;23.350;2022-12-20T07:36:38;97041.56;;;-0.39;100.00
40708;BME280;26392;42.696;23.350;2022-12-20T07:39:04;97041.16;;;-0.44;100.00
40708;BME280;26392;42.696;23.350;2022-12-20T07:41:29;97044.13;;;-0.47;100.00
40708;BME280;26392;42.696;23.350;2022-12-20T07:43:54;97041.44;;;-0.47;100.00
40708;BME280;26392;42.696;23.350;2022-12-20T07:46:22;97043.38;;;-0.39;100.00
40708;BME280;26392;42.696;23.350;2022-12-20T07:48:48;97040.69;;;-0.39;100.00
40708;BME280;26392;42.696;23.350;2022-12-20T07:51:37;97032.34;;;-0.27;100.00
40708;BME280;26392;42.696;23.350;2022-12-20T07:54:14;97026.88;;;-0.25;100.00
40708;BME280;26392;42.696;23.350;2022-12-20T07:56:45;97031.16;;;-0.14;100.00
40708;BME280;26392;42.696;23.350;2022-12-20T07:59:13;97029.63;;;-0.17;100.00
40708;BME280;26392;42.696;23.350;2022-12-20T08:01:41;97025.97;;;-0.16;100.00
40708;BME280;26392;42.696;23.350;2022-12-20T08:04:13;97024.44;;;-0.18;100.00
40708;BME280;26392;42.696;23.350;2022-12-20T08:06:40;97020.88;;;-0.09;100.00
40708;BME280;26392;42.696;23.350;2022-12-20T08:09:06;97022.41;;;-0.07;100.00
40708;BME280;26392;42.696;23.350;2022-12-20T08:11:35;97026.56;;;-0.22;100.00
40708;BME280;26392;42.696;23.350;2022-12-20T08:14:01;97017.63;;;-0.13;100.00
40708;BME280;26392;42.696;23.350;2022-12-20T08:16:28;97023.25;;;-0.06;100.00
40708;BME280;26392;42.696;23.350;2022-12-20T08:18:55;97011.78;;;0.02;100.00
40708;BME280;26392;42.696;23.350;2022-12-20T08:21:20;97014.88;;;0.07;100.00
40708;BME280;26392;42.696;23.350;2022-12-20T08:23:46;97010.22;;;0.09;99.27
40708;BME280;26392;42.696;23.350;2022-12-20T08:26:11;97024.09;;;0.22;100.00
40708;BME280;26392;42.696;23.350;2022-12-20T08:28:37;97021.00;;;0.27;98.17
40708;BME280;26392;42.696;23.350;2022-12-20T08:31:04;97001.31;;;0.36;97.44
40708;BME280;26392;42.696;23.350;2022-12-20T08:33:31;97001.28;;;0.46;96.20
40708;BME280;26392;42.696;23.350;2022-12-20T08:35:58;97000.97;;;0.66;95.15
40708;BME280;26392;42.696;23.350;2022-12-20T08:38:26;97002.59;;;0.77;93.35
40708;BME280;26392;42.696;23.350;2022-12-20T08:40:51;96999.00;;;0.69;88.29
40708;BME280;26392;42.696;23.350;2022-12-20T08:43:16;97001.38;;;0.72;87.67
40708;BME280;26392;42.696;23.350;2022-12-20T08:45:42;96994.47;;;0.69;87.71
40708;BME280;26392;42.696;23.350;2022-12-20T08:48:07;96992.16;;;0.74;87.89
40708;BME280;26392;42.696;23.350;2022-12-20T08:50:33;96996.84;;;0.72;88.28
40708;BME280;26392;42.696;23.350;2022-12-20T08:52:58;97000.31;;;0.82;87.02
40708;BME280;26392;42.696;23.350;2022-12-20T08:55:24;97002.38;;;0.88;85.67
40708;BME280;26392;42.696;23.350;2022-12-20T08:57:50;96990.25;;;0.84;85.42
40708;BME280;26392;42.696;23.350;2022-12-20T09:00:16;96997.22;;;0.77;84.30
40708;BME280;26392;42.696;23.350;2022-12-20T09:02:41;96999.28;;;0.83;85.15
40708;BME280;26392;42.696;23.350;2022-12-20T09:05:07;96992.88;;;0.76;85.40
40708;BME280;26392;42.696;23.350;2022-12-20T09:07:33;96988.41;;;0.85;84.12
40708;BME280;26392;42.696;23.350;2022-12-20T09:09:58;96983.75;;;0.87;83.00
40708;BME280;26392;42.696;23.350;2022-12-20T09:12:23;96979.28;;;0.96;83.52
40708;BME280;26392;42.696;23.350;2022-12-20T09:14:49;96974.06;;;0.94;82.37
40708;BME280;26392;42.696;23.350;2022-12-20T09:17:16;96969.53;;;0.95;81.88
40708;BME280;26392;42.696;23.350;2022-12-20T09:19:43;96969.00;;;0.91;79.91
40708;BME280;26392;42.696;23.350;2022-12-20T09:22:08;96961.41;;;1.04;81.33
40708;BME280;26392;42.696;23.350;2022-12-20T09:24:36;96958.53;;;1.24;79.86
40708;BME280;26392;42.696;23.350;2022-12-20T09:27:02;96952.28;;;1.15;78.51
40708;BME280;26392;42.696;23.350;2022-12-20T09:29:27;96947.69;;;1.33;79.57
40708;BME280;26392;42.696;23.350;2022-12-20T09:31:52;96946.13;;;1.49;77.98
40708;BME280;26392;42.696;23.350;2022-12-20T09:34:18;96951.06;;;1.62;74.69
40708;BME280;26392;42.696;23.350;2022-12-20T09:36:43;96942.34;;;1.68;74.29
40708;BME280;26392;42.696;23.350;2022-12-20T09:39:09;96931.72;;;1.58;73.21
40708;BME280;26392;42.696;23.350;2022-12-20T09:41:41;96937.88;;;1.76;73.91
40708;BME280;26392;42.696;23.350;2022-12-20T09:46:40;96931.56;;;1.94;70.50
40708;BME280;26392;42.696;23.350;2022-12-20T09:49:12;96917.59;;;1.90;71.41
40708;BME280;26392;42.696;23.350;2022-12-20T10:00:18;96905.31;;;2.30;67.54
40708;BME280;26392;42.696;23.350;2022-12-20T10:02:45;96910.34;;;2.33;66.66
40708;BME280;26392;42.696;23.350;2022-12-20T10:05:16;96894.41;;;2.48;67.59
40708;BME280;26392;42.696;23.350;2022-12-20T10:16:17;96877.94;;;2.59;63.09
40708;BME280;26392;42.696;23.350;2022-12-20T10:24:27;96837.69;;;2.99;61.09
40708;BME280;26392;42.696;23.350;2022-12-20T10:26:54;96839.22;;;3.01;60.96
40708;BME280;26392;42.696;23.350;2022-12-20T10:29:20;96834.50;;;3.11;59.44
40708;BME280;26392;42.696;23.350;2022-12-20T10:31:52;96831.94;;;3.18;57.28
40708;BME280;26392;42.696;23.350;2022-12-20T10:34:18;96817.78;;;3.24;58.20
40708;BME280;26392;42.696;23.350;2022-12-20T10:36:44;96814.09;;;3.25;58.77
40708;BME280;26392;42.696;23.350;2022-12-20T10:39:09;96805.34;;;3.15;59.76
40708;BME280;26392;42.696;23.350;2022-12-20T10:44:03;96799.53;;;2.87;60.08
40708;BME280;26392;42.696;23.350;2022-12-20T10:51:52;96792.63;;;2.92;60.01
40708;BME280;26392;42.696;23.350;2022-12-20T10:54:29;96784.53;;;2.92;61.02
40708;BME280;26392;42.696;23.350;2022-12-20T10:57:03;96773.91;;;2.99;60.37
40708;BME280;26392;42.696;23.350;2022-12-20T10:59:41;96779.78;;;3.11;60.45
40708;BME280;26392;42.696;23.350;2022-12-20T11:07:31;96768.22;;;3.42;57.30
40708;BME280;26392;42.696;23.350;2022-12-20T11:10:19;96766.03;;;3.45;57.47
40708;BME280;26392;42.696;23.350;2022-12-20T11:12:59;96757.66;;;3.32;57.32
40708;BME280;26392;42.696;23.350;2022-12-20T11:15:33;96758.81;;;3.38;57.94
40708;BME280;26392;42.696;23.350;2022-12-20T11:18:01;96752.31;;;3.55;57.70
40708;BME280;26392;42.696;23.350;2022-12-20T11:20:40;96752.28;;;3.63;57.46
40708;BME280;26392;42.696;23.350;2022-12-20T11:28:43;96738.94;;;4.01;55.82
40708;BME280;26392;42.696;23.350;2022-12-20T11:39:38;96733.81;;;4.29;52.04
40708;BME280;26392;42.696;23.350;2022-12-20T11:45:14;96721.31;;;4.51;51.38
40708;BME280;26392;42.696;23.350;2022-12-20T11:50:37;96712.88;;;4.54;49.83
40708;BME280;26392;42.696;23.350;2022-12-20T11:55:45;96702.66;;;4.26;50.81
40708;BME280;26392;42.696;23.350;2022-12-20T11:58:25;96704.59;;;4.33;49.43
40708;BME280;26392;42.696;23.350;2022-12-20T12:03:35;96701.41;;;4.52;50.13
40708;BME280;26392;42.696;23.350;2022-12-20T12:06:08;96696.66;;;4.54;50.43
40708;BME280;26392;42.696;23.350;2022-12-20T12:11:39;96687.75;;;4.68;48.99
40708;BME280;26392;42.696;23.350;2022-12-20T12:14:14;96684.38;;;4.81;48.76
40708;BME280;26392;42.696;23.350;2022-12-20T12:16:44;96683.47;;;4.74;48.21
40708;BME280;26392;42.696;23.350;2022-12-20T12:19:12;96680.56;;;4.76;48.47
40708;BME280;26392;42.696;23.350;2022-12-20T12:21:43;96690.06;;;4.57;48.67
40708;BME280;26392;42.696;23.350;2022-12-20T12:26:45;96680.84;;;4.28;49.31
40708;BME280;26392;42.696;23.350;2022-12-20T12:29:12;96679.66;;;4.31;49.32
40708;BME280;26392;42.696;23.350;2022-12-20T12:31:53;96683.84;;;4.33;49.51
40708;BME280;26392;42.696;23.350;2022-12-20T12:47:45;96669.53;;;4.47;49.00
40708;BME280;26392;42.696;23.350;2022-12-20T12:50:24;96676.53;;;4.42;48.70
40708;BME280;26392;42.696;23.350;2022-12-20T12:52:54;96679.50;;;4.47;48.27
40708;BME280;26392;42.696;23.350;2022-12-20T12:55:40;96667.06;;;4.46;48.34
40708;BME280;26392;42.696;23.350;2022-12-20T12:58:32;96663.75;;;4.36;47.74
40708;BME280;26392;42.696;23.350;2022-12-20T13:03:44;96662.47;;;4.32;48.49
40708;BME280;26392;42.696;23.350;2022-12-20T13:09:08;96653.50;;;4.31;47.71
40708;BME280;26392;42.696;23.350;2022-12-20T13:11:37;96649.78;;;4.17;48.41
40708;BME280;26392;42.696;23.350;2022-12-20T13:16:51;96637.31;;;4.16;48.33
40708;BME280;26392;42.696;23.350;2022-12-20T13:21:57;96649.59;;;4.19;48.43
40708;BME280;26392;42.696;23.350;2022-12-20T13:27:02;96654.53;;;4.15;48.05
40708;BME280;26392;42.696;23.350;2022-12-20T13:29:33;96642.75;;;4.08;47.65
40708;BME280;26392;42.696;23.350;2022-12-20T13:32:00;96639.06;;;4.09;47.89
40708;BME280;26392;42.696;23.350;2022-12-20T13:40:33;96633.81;;;3.93;48.12
40708;BME280;26392;42.696;23.350;2022-12-20T13:43:06;96628.19;;;3.79;48.31
40708;BME280;26392;42.696;23.350;2022-12-20T13:45:38;96640.25;;;3.84;49.20
40708;BME280;26392;42.696;23.350;2022-12-20T13:48:13;96633.47;;;3.73;49.36
40708;BME280;26392;42.696;23.350;2022-12-20T13:50:40;96640.53;;;3.74;49.50
40708;BME280;26392;42.696;23.350;2022-12-20T13:53:24;96631.13;;;3.70;49.71
40708;BME280;26392;42.696;23.350;2022-12-20T13:55:51;96637.34;;;3.70;49.46
40708;BME280;26392;42.696;23.350;2022-12-20T13:58:21;96633.03;;;3.61;49.74
40708;BME280;26392;42.696;23.350;2022-12-20T14:00:48;96640.28;;;3.61;49.61
40708;BME280;26392;42.696;23.350;2022-12-20T14:03:26;96632.56;;;3.57;50.04
40708;BME280;26392;42.696;23.350;2022-12-20T14:06:00;96625.66;;;3.55;50.30
40708;BME280;26392;42.696;23.350;2022-12-20T14:08:32;96621.28;;;3.54;50.54
40708;BME280;26392;42.696;23.350;2022-12-20T14:13:36;96614.41;;;3.51;51.08
40708;BME280;26392;42.696;23.350;2022-12-20T14:16:18;96608.53;;;3.48;50.31
40708;BME280;26392;42.696;23.350;2022-12-20T14:18:59;96607.00;;;3.53;50.60
40708;BME280;26392;42.696;23.350;2022-12-20T14:21:25;96617.09;;;3.51;50.60
40708;BME280;26392;42.696;23.350;2022-12-20T14:23:54;96612.19;;;3.55;50.13
40708;BME280;26392;42.696;23.350;2022-12-20T14:26:35;96616.63;;;3.48;50.54
40708;BME280;26392;42.696;23.350;2022-12-20T14:29:11;96615.97;;;3.46;50.51
40708;BME280;26392;42.696;23.350;2022-12-20T14:31:43;96615.66;;;3.41;51.24
40708;BME280;26392;42.696;23.350;2022-12-20T14:36:42;96614.00;;;3.40;50.98
40708;BME280;26392;42.696;23.350;2022-12-20T14:39:30;96602.22;;;3.32;51.50
40708;BME280;26392;42.696;23.350;2022-12-20T14:42:00;96605.66;;;3.26;51.68
40708;BME280;26392;42.696;23.350;2022-12-20T14:44:29;96598.44;;;3.19;52.11
40708;BME280;26392;42.696;23.350;2022-12-20T14:46:59;96605.56;;;3.11;53.00
40708;BME280;26392;42.696;23.350;2022-12-20T14:49:30;96615.03;;;2.99;53.22
40708;BME280;26392;42.696;23.350;2022-12-20T14:52:25;96595.69;;;3.04;52.93
40708;BME280;26392;42.696;23.350;2022-12-20T14:57:42;96602.16;;;2.86;53.73
40708;BME280;26392;42.696;23.350;2022-12-20T15:10:55;96589.84;;;2.61;57.00
40708;BME280;26392;42.696;23.350;2022-12-20T15:13:38;96591.84;;;2.59;57.42